Time;durP1;ratioP1;P1;durP2;ratioP2;P2;SDS_P1;SDS_P2;PMS_P1;PMS_P2;Temp;Humidity;BMP_temperature;BMP_pressure;BME280_temperature;BME280_humidity;BME280_pressure;Samples;Min_cycle;Max_cycle;Signal;HPM_P1;HPM_P2
2022/05/19 00:01:34;;;;;;;22.77;11.03;;;;;;;11.74;73.06;101127.36;1918140;75;21442;-59
2022/05/19 00:04:03;;;;;;;19.17;10.65;;;;;;;11.72;73.39;101126.56;1882661;76;21021;-60
2022/05/19 00:06:32;;;;;;;20.35;11.20;;;;;;;11.67;73.69;101127.18;1882581;76;20997;-59
2022/05/19 00:09:01;;;;;;;20.25;9.53;;;;;;;11.65;73.64;101130.34;1883550;76;21049;-59
2022/05/19 00:11:32;;;;;;;22.42;9.05;;;;;;;11.65;73.48;101132.51;1883452;76;21041;-61
2022/05/19 00:14:01;;;;;;;37.67;10.72;;;;;;;11.66;73.29;101122.38;1870129;77;21105;-59
2022/05/19 00:16:30;;;;;;;13.45;6.25;;;;;;;11.67;73.18;101121.91;1867953;77;21464;-60
2022/05/19 00:18:58;;;;;;;15.30;7.17;;;;;;;11.66;73.07;101114.46;1907511;75;21047;-60
2022/05/19 00:21:27;;;;;;;14.90;7.53;;;;;;;11.66;72.87;101116.25;1907638;75;21093;-59
2022/05/19 00:23:56;;;;;;;11.33;4.78;;;;;;;11.67;72.71;101117.95;1907503;75;21080;-60
2022/05/19 00:26:25;;;;;;;21.07;7.00;;;;;;;11.67;72.56;101116.62;1908008;75;21011;-59
2022/05/19 00:28:54;;;;;;;14.93;7.40;;;;;;;11.65;72.63;101109.23;1921038;75;21125;-60
2022/05/19 00:31:23;;;;;;;17.62;8.33;;;;;;;11.59;72.83;101128.33;1920799;75;21142;-59
2022/05/19 00:33:52;;;;;;;19.17;7.72;;;;;;;11.59;72.71;101131.43;1919992;75;21529;-59
2022/05/19 00:36:21;;;;;;;18.85;8.68;;;;;;;11.58;72.55;101127.94;1920768;75;21120;-60
2022/05/19 00:38:50;;;;;;;21.33;8.20;;;;;;;11.59;72.53;101137.55;1916536;75;21647;-59
2022/05/19 00:41:19;;;;;;;19.25;7.90;;;;;;;11.58;72.51;101137.17;1907461;75;21485;-59
2022/05/19 00:43:57;;;;;;;18.05;9.13;;;;;;;11.55;72.79;101153.09;1909689;73;21123;-59
2022/05/19 00:46:41;;;;;;;17.12;7.62;;;;;;;11.51;73.04;101154.12;1909789;75;21031;-59
2022/05/19 00:49:28;;;;;;;16.15;7.50;;;;;;;11.48;73.23;101150.28;1910410;75;21026;-60
2022/05/19 00:52:05;;;;;;;17.15;8.50;;;;;;;11.47;73.23;101153.84;1910330;75;21027;-59
2022/05/19 00:54:38;;;;;;;20.35;9.85;;;;;;;11.47;73.33;101159.13;1912289;74;21464;-59
2022/05/19 00:57:28;;;;;;;19.52;8.83;;;;;;;11.47;73.13;101151.21;1909577;75;21047;-59
2022/05/19 01:00:00;;;;;;;23.62;9.58;;;;;;;11.45;73.38;101150.38;1910854;74;21489;-59
2022/05/19 01:02:31;;;;;;;18.40;9.45;;;;;;;11.44;73.48;101153.09;1905730;75;21053;-60
2022/05/19 01:05:05;;;;;;;21.55;10.48;;;;;;;11.42;73.77;101160.17;1905754;75;21115;-59
2022/05/19 01:07:39;;;;;;;21.40;9.83;;;;;;;11.40;74.24;101170.80;1820733;75;21017;-59
2022/05/19 01:10:09;;;;;;;14.60;7.60;;;;;;;11.39;74.36;101170.38;1926880;74;21444;-58
2022/05/19 01:12:38;;;;;;;28.17;11.03;;;;;;;11.36;74.68;101181.03;1939673;74;21061;-58
2022/05/19 01:15:08;;;;;;;24.52;9.70;;;;;;;11.34;74.76;101178.47;1939616;74;21037;-58
2022/05/19 01:17:38;;;;;;;25.32;9.73;;;;;;;11.31;75.23;101172.45;1939518;74;21110;-59
2022/05/19 01:20:15;;;;;;;21.30;8.93;;;;;;;11.30;75.17;101165.44;1939554;74;21005;-59
2022/05/19 01:22:46;;;;;;;20.50;9.10;;;;;;;11.32;74.96;101156.55;1939567;74;21024;-59
2022/05/19 01:25:18;;;;;;;21.20;9.90;;;;;;;11.33;74.77;101164.02;1936350;74;21048;-59
2022/05/19 01:27:46;;;;;;;22.50;10.28;;;;;;;11.30;75.02;101169.39;1939509;74;21025;-59
2022/05/19 01:30:15;;;;;;;26.33;9.40;;;;;;;11.26;75.59;101188.41;1939569;74;21021;-58
2022/05/19 01:32:44;;;;;;;20.68;9.70;;;;;;;11.22;75.92;101190.75;1939622;74;21025;-60
2022/05/19 01:35:13;;;;;;;23.67;10.13;;;;;;;11.18;76.11;101193.95;1937402;74;21068;-60
2022/05/19 01:37:42;;;;;;;16.70;8.65;;;;;;;11.16;76.46;101188.34;1939498;74;21487;-59
2022/05/19 01:40:33;;;;;;;21.48;10.43;;;;;;;11.16;76.52;101207.64;1936989;74;21138;-58
2022/05/19 01:43:24;;;;;;;19.92;9.68;;;;;;;11.16;76.72;101198.42;1941521;73;21072;-59
2022/05/19 01:46:23;;;;;;;22.50;9.35;;;;;;;11.17;76.62;101202.75;1948489;73;21069;-60
2022/05/19 01:48:57;;;;;;;21.50;9.78;;;;;;;11.16;76.34;101194.93;1950003;73;20997;-59
2022/05/19 01:51:35;;;;;;;23.02;10.32;;;;;;;11.14;76.57;101195.41;1950087;73;21009;-60
2022/05/19 01:54:18;;;;;;;19.02;7.65;;;;;;;11.10;76.81;101202.59;1949948;73;21549;-60
2022/05/19 01:56:56;;;;;;;24.65;10.15;;;;;;;11.06;76.72;101218.08;1948651;73;21107;-59
2022/05/19 01:59:43;;;;;;;19.23;8.98;;;;;;;10.97;76.74;101220.58;1949644;73;21480;-60
2022/05/19 02:02:27;;;;;;;21.45;10.28;;;;;;;10.93;77.23;101227.30;1946260;73;21457;-59
2022/05/19 02:05:07;;;;;;;27.77;11.60;;;;;;;10.87;77.24;101227.05;1950041;73;21090;-59
2022/05/19 02:07:39;;;;;;;23.10;10.00;;;;;;;10.86;77.58;101221.83;1948748;73;21078;-58
2022/05/19 02:10:13;;;;;;;21.77;8.70;;;;;;;10.86;77.87;101213.92;1950000;73;21028;-59
2022/05/19 02:12:43;;;;;;;22.80;10.50;;;;;;;10.87;78.09;101209.07;1949950;73;21558;-59
2022/05/19 02:15:15;;;;;;;21.42;10.00;;;;;;;10.89;78.29;101222.59;1950214;73;21025;-60
2022/05/19 02:17:47;;;;;;;17.67;8.23;;;;;;;10.93;78.47;101220.72;1948412;73;21083;-60
2022/05/19 02:20:19;;;;;;;19.42;9.75;;;;;;;10.97;78.43;101227.17;1949973;73;21110;-60
2022/05/19 02:22:47;;;;;;;24.80;8.93;;;;;;;11.05;78.39;101232.61;1949880;73;21037;-59
2022/05/19 14:54:50;;;;;;;1.72;0.88;;;;;;;14.40;46.18;101515.11;1918100;73;25824;-60
2022/05/19 14:57:21;;;;;;;1.25;0.70;;;;;;;14.27;45.96;101514.33;1912108;73;21067;-60
2022/05/19 14:59:54;;;;;;;2.85;0.80;;;;;;;14.17;46.36;101526.22;1914559;75;21035;-60
2022/05/19 15:02:25;;;;;;;2.62;1.30;;;;;;;14.08;46.98;101526.60;1915323;74;21031;-60
2022/05/19 15:04:54;;;;;;;1.37;0.95;;;;;;;14.02;47.53;101520.25;1914689;75;21552;-60
2022/05/19 15:07:32;;;;;;;1.92;0.93;;;;;;;13.96;47.92;101512.53;1915390;75;21067;-59
2022/05/19 15:10:00;;;;;;;8.43;1.72;;;;;;;13.96;47.87;101523.12;1914686;74;21506;-60
2022/05/19 15:12:29;;;;;;;1.22;1.05;;;;;;;13.97;48.03;101523.53;1916814;74;21085;-59
2022/05/19 15:14:59;;;;;;;2.55;1.20;;;;;;;14.02;48.36;101530.84;1914712;75;21114;-59
2022/05/19 15:17:27;;;;;;;1.80;1.10;;;;;;;14.03;48.72;101525.45;1915442;75;21039;-59
2022/05/19 15:19:56;;;;;;;2.80;0.88;;;;;;;14.08;48.47;101518.66;1915009;75;21011;-61
2022/05/19 15:22:26;;;;;;;4.53;1.37;;;;;;;14.14;48.37;101518.86;1915294;74;21094;-61
2022/05/19 15:24:54;;;;;;;1.05;0.70;;;;;;;14.19;47.73;101508.95;1914597;75;21474;-61
2022/05/19 15:27:26;;;;;;;3.12;1.07;;;;;;;14.16;47.32;101520.52;1915348;74;21019;-58
2022/05/19 15:29:55;;;;;;;1.47;1.25;;;;;;;14.14;47.49;101525.02;1915267;75;21125;-62
2022/05/19 15:35:16;;;;;;;1.87;1.12;;;;;;;14.14;47.83;101538.25;1962514;72;21597;-59
2022/05/19 15:37:45;;;;;;;4.47;1.80;;;;;;;14.12;47.78;101534.81;1999380;72;21465;-60
2022/05/19 15:40:18;;;;;;;3.12;0.90;;;;;;;14.09;48.13;101542.44;1999184;72;21556;-62
2022/05/19 15:42:47;;;;;;;1.52;0.75;;;;;;;14.04;48.41;101545.72;1999423;72;21016;-59
2022/05/19 15:45:16;;;;;;;1.42;0.95;;;;;;;13.92;49.02;101533.45;1999385;72;21027;-59
2022/05/19 15:47:53;;;;;;;1.75;0.80;;;;;;;13.74;49.46;101526.66;1983713;72;21424;-58
2022/05/19 15:50:24;;;;;;;1.12;0.60;;;;;;;13.56;49.78;101553.84;1960483;73;21038;-59
2022/05/19 15:52:57;;;;;;;1.40;0.82;;;;;;;13.39;50.32;101544.77;1960356;73;21046;-58
2022/05/19 15:55:28;;;;;;;9.53;1.40;;;;;;;13.31;50.12;101558.72;1960357;73;21023;-59
2022/05/19 15:57:59;;;;;;;3.12;0.88;;;;;;;13.21;50.59;101569.22;1962813;72;21049;-61
2022/05/19 16:00:27;;;;;;;0.98;0.85;;;;;;;13.14;50.68;101570.74;1960340;73;21036;-59
2022/05/19 16:02:59;;;;;;;2.90;0.90;;;;;;;13.11;50.83;101576.16;1960364;73;21038;-61
2022/05/19 16:05:29;;;;;;;1.27;0.78;;;;;;;13.06;51.37;101576.78;1959794;73;21074;-59
2022/05/19 16:07:57;;;;;;;1.90;0.80;;;;;;;12.99;51.72;101563.38;1959650;73;21457;-59
2022/05/19 16:10:27;;;;;;;1.20;0.80;;;;;;;12.96;52.23;101571.41;1959762;73;21116;-62
2022/05/19 16:12:56;;;;;;;0.70;0.70;;;;;;;12.86;53.30;101573.99;1994416;72;21426;-59
2022/05/19 16:15:27;;;;;;;0.62;0.60;;;;;;;12.81;54.03;101571.96;1998997;72;21120;-59
2022/05/19 16:17:56;;;;;;;1.47;0.60;;;;;;;12.75;54.19;101571.72;1998914;72;21024;-59
2022/05/19 16:20:25;;;;;;;1.70;0.85;;;;;;;12.71;54.58;101582.85;1998741;72;21019;-60
2022/05/19 16:22:56;;;;;;;2.05;1.00;;;;;;;12.66;55.62;101575.53;1995811;72;21019;-59
2022/05/19 16:25:29;;;;;;;1.10;0.90;;;;;;;12.62;56.10;101581.00;1998680;72;21027;-59
2022/05/19 16:27:59;;;;;;;3.10;0.90;;;;;;;12.61;55.84;101585.39;1998874;72;21077;-59
2022/05/19 16:30:30;;;;;;;2.20;0.95;;;;;;;12.61;56.01;101592.00;1998789;72;20996;-61
2022/05/19 16:32:59;;;;;;;2.05;0.78;;;;;;;12.58;56.04;101584.20;1998735;72;21098;-61
2022/05/19 16:35:30;;;;;;;1.40;0.47;;;;;;;12.60;55.73;101588.97;1995749;72;21610;-62
2022/05/19 16:38:02;;;;;;;1.75;0.80;;;;;;;12.59;55.99;101593.83;1992204;72;21054;-59
2022/05/19 16:40:32;;;;;;;1.70;0.90;;;;;;;12.58;56.77;101592.13;1995384;72;20995;-61
2022/05/19 16:43:01;;;;;;;0.93;0.80;;;;;;;12.55;57.53;101593.53;1995254;72;21023;-61
2022/05/19 16:45:31;;;;;;;2.58;0.80;;;;;;;12.51;57.87;101580.89;1995383;72;21093;-60
2022/05/19 16:48:00;;;;;;;1.10;0.70;;;;;;;12.45;59.10;101581.53;1982649;72;21105;-60
2022/05/19 16:50:32;;;;;;;1.32;0.62;;;;;;;12.39;59.34;101594.95;1959967;72;21597;-58
2022/05/19 16:53:01;;;;;;;0.65;0.55;;;;;;;12.34;59.65;101599.09;1952974;73;20999;-60
2022/05/19 16:58:17;;;;;;;1.15;0.95;;;;;;;12.28;60.01;101605.87;1988462;72;21084;-58
2022/05/19 17:00:49;;;;;;;2.47;0.72;;;;;;;12.22;60.29;101605.61;1995149;72;21096;-56
2022/05/19 17:03:18;;;;;;;1.00;0.78;;;;;;;12.20;60.66;101610.08;1995239;72;21022;-57
2022/05/19 17:05:53;;;;;;;3.30;1.30;;;;;;;12.14;61.05;101604.54;1994835;72;21051;-63
2022/05/19 17:08:21;;;;;;;1.10;0.80;;;;;;;12.07;62.00;101604.78;1953217;73;21043;-61
2022/05/19 17:10:50;;;;;;;1.10;0.70;;;;;;;12.00;62.58;101605.89;1952917;73;21023;-63
2022/05/19 17:13:21;;;;;;;1.07;0.98;;;;;;;11.96;62.40;101612.57;1982346;72;21070;-60
2022/05/19 17:15:50;;;;;;;2.58;1.00;;;;;;;11.95;62.26;101598.98;1995319;72;21482;-60
2022/05/19 17:18:20;;;;;;;0.55;0.55;;;;;;;11.90;63.06;101611.45;1995215;72;21147;-62
2022/05/19 17:20:53;;;;;;;1.45;0.70;;;;;;;11.82;63.78;101613.41;1995200;72;21477;-62
2022/05/19 17:23:21;;;;;;;2.58;0.90;;;;;;;11.80;63.27;101620.51;1991277;72;21135;-62
2022/05/19 17:25:49;;;;;;;1.20;1.00;;;;;;;11.80;64.00;101621.83;1995232;72;21501;-61
2022/05/19 17:28:19;;;;;;;2.30;1.30;;;;;;;11.73;64.06;101626.45;1995255;72;20996;-62
2022/05/19 17:30:48;;;;;;;2.92;1.22;;;;;;;11.70;64.87;101626.52;1995393;72;21088;-61
2022/05/19 17:33:17;;;;;;;1.98;1.12;;;;;;;11.70;64.62;101630.95;1995331;72;21086;-60
2022/05/19 17:35:48;;;;;;;15.60;1.32;;;;;;;11.71;64.34;101632.23;1999857;72;21066;-62
2022/05/19 17:38:17;;;;;;;4.85;1.72;;;;;;;11.66;65.72;101633.27;1979510;72;21117;-62
2022/05/19 17:40:45;;;;;;;2.45;1.30;;;;;;;11.60;66.28;101639.59;1963004;72;21123;-62
2022/05/19 17:43:14;;;;;;;3.85;1.70;;;;;;;11.54;66.41;101643.24;1963025;72;21050;-62
2022/05/19 17:45:44;;;;;;;2.70;1.62;;;;;;;11.50;67.16;101646.88;1963006;73;21055;-61
2022/05/19 17:48:14;;;;;;;2.72;1.32;;;;;;;11.49;67.75;101641.22;1965723;72;21083;-62
2022/05/19 17:50:44;;;;;;;1.98;1.17;;;;;;;11.42;68.24;101633.06;1962923;73;21105;-60
2022/05/19 17:53:13;;;;;;;2.12;1.47;;;;;;;11.41;68.12;101644.50;1962997;73;21472;-62
2022/05/19 17:55:45;;;;;;;7.80;1.72;;;;;;;11.42;68.33;101646.67;1962957;73;21461;-62
2022/05/19 17:58:14;;;;;;;7.28;1.55;;;;;;;11.42;68.48;101642.72;1965552;72;21018;-62
2022/05/19 18:00:44;;;;;;;3.75;1.70;;;;;;;11.41;68.14;101644.50;1963004;73;21527;-61
2022/05/19 18:03:14;;;;;;;4.90;1.82;;;;;;;11.40;68.36;101649.39;1962906;73;21131;-62
2022/05/19 18:05:43;;;;;;;2.20;1.40;;;;;;;11.39;68.48;101644.55;1963023;73;21418;-61
2022/05/19 18:08:12;;;;;;;4.72;1.60;;;;;;;11.39;68.52;101643.69;1964158;72;21042;-61
2022/05/19 18:10:42;;;;;;;2.25;1.32;;;;;;;11.39;68.54;101650.28;1963331;72;21030;-62
2022/05/19 18:13:12;;;;;;;4.53;2.58;;;;;;;11.42;68.40;101650.20;1962989;73;21042;-62
2022/05/19 18:18:32;;;;;;;4.05;2.12;;;;;;;11.40;68.86;101652.02;2002121;72;21225;-62
2022/05/19 18:21:05;;;;;;;3.20;2.65;;;;;;;11.37;69.47;101656.05;2002218;72;21003;-60
2022/05/19 18:23:36;;;;;;;6.62;2.85;;;;;;;11.32;69.69;101653.53;2002355;72;21108;-62
2022/05/19 18:26:08;;;;;;;6.37;3.70;;;;;;;11.33;69.59;101650.46;1987261;72;21042;-60
2022/05/19 18:28:40;;;;;;;7.37;2.77;;;;;;;11.32;69.95;101644.77;1951891;72;21026;-58
2022/05/19 18:31:09;;;;;;;3.65;2.22;;;;;;;11.31;69.73;101648.32;1963332;72;21023;-60
2022/05/19 18:33:38;;;;;;;4.40;2.35;;;;;;;11.31;69.65;101641.27;1992259;72;21516;-61
2022/05/19 18:36:08;;;;;;;3.30;2.25;;;;;;;11.33;69.72;101642.55;1993852;72;21129;-61
2022/05/19 18:38:37;;;;;;;5.12;2.87;;;;;;;11.30;70.15;101637.35;1995838;72;21082;-62
2022/05/19 18:46:39;;;;;;;8.05;5.55;;;;;;;11.25;70.87;101635.29;1981468;71;21046;-62
2022/05/19 18:49:09;;;;;;;11.48;8.13;;;;;;;11.19;71.48;101635.00;1969583;73;21022;-60
2022/05/19 18:51:38;;;;;;;8.95;7.22;;;;;;;11.15;71.71;101634.22;1969576;73;21469;-62
2022/05/19 18:54:07;;;;;;;10.80;9.68;;;;;;;11.13;71.92;101628.59;1969615;73;21461;-61
2022/05/19 18:56:37;;;;;;;9.20;6.42;;;;;;;11.11;72.46;101631.27;1972089;71;21026;-60
2022/05/19 18:59:05;;;;;;;9.60;5.97;;;;;;;11.08;72.71;101628.70;1969633;73;21100;-61
2022/05/19 19:01:36;;;;;;;8.15;5.03;;;;;;;11.07;72.70;101636.67;1969606;73;21100;-61
2022/05/19 19:04:05;;;;;;;11.20;6.45;;;;;;;11.02;73.19;101636.78;1969610;72;21027;-60
2022/05/19 19:06:34;;;;;;;5.28;2.65;;;;;;;10.98;73.41;101636.45;1969730;73;21108;-62
2022/05/19 19:09:03;;;;;;;8.20;2.80;;;;;;;10.95;73.83;101639.16;1969658;73;21030;-61
2022/05/19 19:11:31;;;;;;;4.78;2.85;;;;;;;10.92;74.10;101632.22;1978162;71;21068;-61
2022/05/19 19:14:00;;;;;;;5.65;2.95;;;;;;;10.91;74.65;101625.20;1934860;74;21139;-62
2022/05/19 19:16:30;;;;;;;6.22;3.33;;;;;;;10.87;75.30;101621.39;1934914;74;21167;-60
2022/05/19 19:19:03;;;;;;;5.50;3.20;;;;;;;10.84;75.85;101618.83;1935040;74;21038;-62
2022/05/19 19:21:36;;;;;;;4.10;2.00;;;;;;;10.82;76.17;101625.44;1972575;71;21084;-61
2022/05/19 19:24:00;;;;;;;3.70;1.98;;;;;;;10.80;76.25;101621.98;2004556;71;21014;-62
2022/05/19 19:26:28;;;;;;;3.40;2.50;;;;;;;10.80;76.79;101605.72;2005488;71;21015;-62
2022/05/19 19:28:57;;;;;;;6.22;2.20;;;;;;;10.76;77.42;101621.20;2005614;71;21046;-61
2022/05/19 19:31:27;;;;;;;4.08;2.30;;;;;;;10.75;77.45;101617.28;2005592;71;21050;-61
2022/05/19 19:33:56;;;;;;;4.12;2.30;;;;;;;10.75;77.75;101611.59;2002998;71;21072;-62
2022/05/19 19:36:25;;;;;;;2.87;1.75;;;;;;;10.71;78.20;101600.69;2002145;71;21067;-61
2022/05/19 19:38:54;;;;;;;3.67;1.92;;;;;;;10.71;78.27;101616.49;1995065;72;21088;-61
2022/05/19 19:41:23;;;;;;;2.87;2.00;;;;;;;10.70;78.58;101609.52;1995306;72;21493;-61
2022/05/19 19:43:51;;;;;;;4.42;2.70;;;;;;;10.69;78.65;101609.09;1995408;72;21441;-61
2022/05/19 19:46:26;;;;;;;6.33;1.92;;;;;;;10.68;79.01;101618.34;1995325;72;21042;-62
2022/05/19 19:48:51;;;;;;;4.58;2.25;;;;;;;10.67;79.04;101616.63;1955137;72;21055;-62
2022/05/19 19:54:06;;;;;;;5.33;2.20;;;;;;;10.67;79.21;101621.44;1953067;73;21086;-62
2022/05/19 19:56:35;;;;;;;3.30;1.82;;;;;;;10.66;79.03;101629.37;1953008;73;21112;-61
2022/05/19 19:59:04;;;;;;;2.87;1.40;;;;;;;10.68;78.92;101624.50;1988101;72;21043;-61
2022/05/19 20:01:36;;;;;;;5.65;1.90;;;;;;;10.71;78.93;101627.49;1987748;72;21058;-61
2022/05/19 20:04:03;;;;;;;2.67;1.20;;;;;;;10.71;78.75;101619.13;1961169;72;21087;-61
2022/05/19 20:06:32;;;;;;;2.83;1.35;;;;;;;10.75;78.32;101627.81;1953201;73;21163;-62
2022/05/19 20:09:01;;;;;;;8.90;3.20;;;;;;;10.80;77.86;101639.11;1980483;72;21038;-62
2022/05/19 20:11:29;;;;;;;6.00;3.17;;;;;;;10.81;77.72;101621.95;1995294;72;21039;-61
2022/05/19 20:13:58;;;;;;;3.33;1.65;;;;;;;10.85;77.99;101637.69;1995287;72;21015;-61
2022/05/19 20:16:28;;;;;;;3.87;1.87;;;;;;;10.83;78.15;101637.73;1995125;72;21024;-61
2022/05/19 20:18:57;;;;;;;4.30;2.35;;;;;;;10.83;78.55;101621.92;1992318;72;21010;-60
2022/05/19 20:21:26;;;;;;;4.50;2.17;;;;;;;10.84;78.80;101632.85;1959819;72;21547;-61
2022/05/19 20:23:55;;;;;;;2.87;1.67;;;;;;;10.85;79.00;101636.38;1953041;73;21116;-61
2022/05/19 20:26:24;;;;;;;2.50;1.70;;;;;;;10.85;78.95;101629.79;1975644;72;21125;-61
2022/05/19 20:28:53;;;;;;;5.30;1.92;;;;;;;10.86;78.96;101636.77;1995149;72;21502;-61
2022/05/19 20:31:22;;;;;;;2.92;1.62;;;;;;;10.85;79.16;101642.50;1995386;72;21089;-61
2022/05/19 20:33:51;;;;;;;3.05;1.95;;;;;;;10.86;79.18;101645.99;1995374;72;20999;-60
2022/05/19 20:36:19;;;;;;;4.05;1.50;;;;;;;10.86;79.37;101631.50;1992198;72;20999;-60
2022/05/19 20:38:48;;;;;;;2.47;1.30;;;;;;;10.87;79.29;101627.97;1995300;72;21019;-61
2022/05/19 20:41:17;;;;;;;2.52;1.57;;;;;;;10.87;79.38;101639.37;1995303;72;21038;-61
2022/05/19 20:43:45;;;;;;;1.37;1.12;;;;;;;10.87;79.38;101637.20;1995244;72;21031;-61
2022/05/19 20:46:15;;;;;;;4.30;1.82;;;;;;;10.87;79.58;101645.10;1992298;72;21027;-62
2022/05/19 20:48:44;;;;;;;1.98;1.52;;;;;;;10.86;79.69;101644.67;1995307;72;21458;-61
2022/05/19 20:51:12;;;;;;;2.92;1.80;;;;;;;10.86;79.63;101638.94;1995266;72;21151;-61
2022/05/19 20:53:41;;;;;;;3.55;1.40;;;;;;;10.86;79.75;101636.31;1995241;72;21065;-61
2022/05/19 20:56:10;;;;;;;2.37;1.40;;;;;;;10.87;79.70;101643.32;1995121;72;21026;-61
2022/05/19 20:58:39;;;;;;;1.95;1.00;;;;;;;10.89;79.61;101655.14;1992229;72;21462;-60
2022/05/19 21:01:08;;;;;;;2.55;1.57;;;;;;;10.91;79.52;101651.55;1995406;72;21014;-61
2022/05/19 21:03:37;;;;;;;2.00;1.10;;;;;;;10.91;79.73;101654.19;1995275;72;21027;-61
2022/05/19 21:06:06;;;;;;;2.90;1.47;;;;;;;10.91;79.71;101657.28;1995325;72;21034;-60
2022/05/19 21:08:35;;;;;;;3.27;1.62;;;;;;;10.90;79.87;101648.95;1971792;72;21441;-60
2022/05/19 21:11:04;;;;;;;3.08;1.47;;;;;;;10.89;79.92;101654.69;1953054;73;21097;-61
2022/05/19 21:13:32;;;;;;;2.80;1.85;;;;;;;10.89;80.06;101645.45;1953304;73;21536;-61
2022/05/19 21:16:01;;;;;;;3.65;1.60;;;;;;;10.89;80.20;101651.19;1975470;72;21084;-61
2022/05/19 21:18:30;;;;;;;3.15;1.82;;;;;;;10.90;80.27;101643.68;1963080;72;21100;-61
2022/05/19 21:20:58;;;;;;;2.40;1.60;;;;;;;10.90;80.27;101643.68;1952992;73;20998;-62
2022/05/19 21:26:14;;;;;;;4.40;1.40;;;;;;;10.92;80.34;101649.77;1953067;73;21059;-61
2022/05/19 21:28:42;;;;;;;1.32;0.93;;;;;;;10.91;80.31;101650.23;1955874;72;21090;-63
2022/05/19 21:31:11;;;;;;;1.65;1.10;;;;;;;10.90;80.33;101647.20;1953094;73;21059;-64
2022/05/19 21:33:40;;;;;;;2.67;1.22;;;;;;;10.91;80.19;101652.02;1952974;73;21027;-65
2022/05/19 21:36:10;;;;;;;2.10;1.22;;;;;;;10.89;80.10;101655.14;1953146;73;21051;-65
2022/05/19 21:38:40;;;;;;;3.67;1.50;;;;;;;10.88;79.91;101650.34;1952315;72;21587;-64
2022/05/19 21:41:10;;;;;;;2.02;1.22;;;;;;;10.87;79.79;101654.32;1954904;72;21031;-65
2022/05/19 21:43:39;;;;;;;1.30;0.85;;;;;;;10.89;79.69;101653.83;1995352;72;21027;-65
2022/05/19 21:46:09;;;;;;;2.22;1.30;;;;;;;10.90;79.42;101655.54;1995205;72;21038;-65
2022/05/19 21:48:39;;;;;;;1.50;1.00;;;;;;;10.90;79.37;101650.27;1995386;72;21437;-65
2022/05/19 21:56:42;;;;;;;2.65;1.42;;;;;;;10.97;79.47;101657.11;1995139;72;21118;-65
2022/05/19 21:59:11;;;;;;;2.10;1.35;;;;;;;10.99;79.20;101655.30;1995266;72;21003;-65
2022/05/19 22:01:40;;;;;;;4.50;2.35;;;;;;;11.00;79.25;101657.05;1995282;72;21034;-65
2022/05/19 22:04:08;;;;;;;6.87;2.27;;;;;;;11.01;79.03;101665.34;1995488;72;21519;-65
2022/05/19 22:09:23;;;;;;;1.92;1.37;;;;;;;11.03;78.88;101660.92;1953078;73;21128;-66
2022/05/19 22:11:52;;;;;;;2.90;1.40;;;;;;;11.04;79.08;101646.83;1953060;73;21110;-66
2022/05/19 22:14:22;;;;;;;2.72;1.45;;;;;;;11.04;79.01;101652.09;1973134;72;21069;-65
2022/05/19 22:16:51;;;;;;;7.58;2.22;;;;;;;11.05;78.98;101656.48;1995290;72;21011;-65
2022/05/19 22:19:20;;;;;;;4.53;1.82;;;;;;;11.04;78.95;101658.69;1995203;72;21019;-65
2022/05/19 22:21:48;;;;;;;6.62;1.55;;;;;;;11.03;79.07;101656.97;1995235;72;21039;-65
2022/05/19 22:24:17;;;;;;;3.12;1.20;;;;;;;11.04;79.27;101652.09;1992194;72;21076;-65
2022/05/19 22:26:46;;;;;;;2.15;0.98;;;;;;;11.05;79.21;101651.64;1995351;72;21092;-65
2022/05/19 22:29:14;;;;;;;1.85;1.37;;;;;;;11.04;79.32;101645.51;1995160;72;21477;-65
2022/05/19 22:31:43;;;;;;;3.02;1.35;;;;;;;11.05;79.47;101653.84;1995194;72;21140;-65
2022/05/19 22:34:12;;;;;;;3.90;1.65;;;;;;;11.05;79.44;101639.77;1995119;72;21098;-65
2022/05/19 22:36:40;;;;;;;1.77;1.40;;;;;;;11.05;79.48;101648.57;1995281;72;21058;-65
2022/05/19 22:39:09;;;;;;;1.60;1.20;;;;;;;11.05;79.49;101647.25;1980642;72;21027;-65
2022/05/19 22:41:37;;;;;;;2.52;1.20;;;;;;;11.06;79.60;101658.19;1930982;72;21063;-65
2022/05/19 22:44:06;;;;;;;1.98;1.72;;;;;;;11.05;79.67;101653.84;1924209;74;21011;-64
2022/05/19 22:47:37;;;;;;;2.75;1.20;;;;;;;11.05;79.67;101645.94;1943854;73;21401;-65
2022/05/19 22:49:07;;;;;;;3.60;1.80;;;;;;;11.05;79.69;101652.53;1957102;73;21069;-65
2022/05/19 22:51:35;;;;;;;2.98;1.80;;;;;;;11.04;80.02;101644.19;1954001;73;21078;-58
2022/05/19 22:54:04;;;;;;;3.10;1.62;;;;;;;11.05;80.01;101650.31;1927193;73;21115;-59
2022/05/19 22:56:33;;;;;;;2.33;1.75;;;;;;;11.05;79.97;101643.30;1926477;73;21136;-62
2022/05/19 22:59:01;;;;;;;4.85;1.47;;;;;;;11.06;79.80;101653.38;1924369;73;21018;-60
2022/05/19 23:01:30;;;;;;;2.47;1.22;;;;;;;11.04;79.83;101637.60;1925811;73;21138;-65
2022/05/19 23:03:59;;;;;;;2.83;0.95;;;;;;;11.03;79.88;101643.80;1923853;73;21091;-58
2022/05/19 23:06:27;;;;;;;2.67;1.50;;;;;;;11.01;79.71;101632.41;1924010;74;21015;-57
2022/05/19 23:08:57;;;;;;;1.75;1.22;;;;;;;11.01;79.62;101627.13;1923986;74;21007;-59
2022/05/19 23:11:26;;;;;;;1.75;1.10;;;;;;;11.01;79.27;101614.84;1913363;73;21134;-61
2022/05/19 23:13:54;;;;;;;1.50;0.98;;;;;;;11.03;79.00;101640.27;1925927;73;21122;-62
2022/05/19 23:16:23;;;;;;;1.55;1.00;;;;;;;11.03;78.79;101636.32;1926262;73;21088;-63
2022/05/19 23:18:51;;;;;;;1.22;1.00;;;;;;;11.03;78.54;101641.16;1924766;73;21108;-62
2022/05/19 23:21:20;;;;;;;1.27;0.70;;;;;;;11.03;78.37;101642.48;1927875;73;21023;-64
2022/05/19 23:23:49;;;;;;;3.20;1.40;;;;;;;11.01;78.25;101637.24;1924778;73;21118;-64
2022/05/19 23:26:17;;;;;;;6.37;1.42;;;;;;;11.00;78.17;101628.91;1923939;74;21104;-62
2022/05/19 23:28:46;;;;;;;1.27;0.82;;;;;;;11.01;78.02;101644.27;1926597;73;21007;-56
2022/05/19 23:31:15;;;;;;;1.22;0.78;;;;;;;11.02;77.89;101639.41;1924088;74;21155;-66
2022/05/19 23:33:44;;;;;;;2.05;0.82;;;;;;;11.03;77.64;101632.37;1923635;74;21071;-61
2022/05/19 23:36:18;;;;;;;1.65;1.00;;;;;;;11.03;77.32;101635.89;1922461;74;21466;-60
2022/05/19 23:38:47;;;;;;;2.17;1.00;;;;;;;11.04;77.12;101637.60;1923296;73;21177;-63
2022/05/19 23:41:18;;;;;;;6.55;1.15;;;;;;;11.04;76.95;101632.33;1933685;73;21070;-63
2022/05/19 23:43:46;;;;;;;2.62;2.15;;;;;;;11.05;76.87;101638.03;1954410;72;21170;-63
2022/05/19 23:46:15;;;;;;;2.00;1.30;;;;;;;11.05;76.68;101637.14;1959467;72;21734;-63
2022/05/19 23:48:43;;;;;;;1.80;0.90;;;;;;;11.03;76.60;101635.89;1960565;72;21134;-62
2022/05/19 23:51:18;;;;;;;3.30;0.93;;;;;;;11.03;76.47;101627.98;1953033;73;21011;-67
2022/05/19 23:53:47;;;;;;;2.45;1.20;;;;;;;11.03;76.36;101624.03;1953407;72;21011;-62
2022/05/19 23:56:16;;;;;;;1.62;1.10;;;;;;;11.04;76.14;101629.70;1953429;72;21474;-60
2022/05/19 23:58:44;;;;;;;2.10;0.95;;;;;;;11.04;75.73;101620.47;1953712;72;21063;-64
